createdAt,value
2017-05-18T00:00:19.534Z,17.10
2017-05-18T00:02:48.406Z,17.00
2017-05-18T00:05:17.166Z,17.00
2017-05-18T00:07:46.013Z,17.00
2017-05-18T00:10:14.882Z,17.20
2017-05-18T00:12:43.700Z,17.20
2017-05-18T00:15:12.511Z,17.20
2017-05-18T00:17:41.349Z,17.30
2017-05-18T00:20:10.199Z,17.30
2017-05-18T00:22:39.040Z,17.40
2017-05-18T00:25:07.910Z,17.40
2017-05-18T00:27:36.727Z,17.40
2017-05-18T00:30:05.545Z,17.30
2017-05-18T00:32:34.382Z,17.40
2017-05-18T00:35:03.218Z,17.40
2017-05-18T00:37:32.034Z,17.40
2017-05-18T00:40:00.867Z,17.30
2017-05-18T00:42:29.685Z,17.30
2017-05-18T00:44:58.626Z,17.30
2017-05-18T00:47:27.461Z,17.30
2017-05-18T00:49:56.299Z,17.20
2017-05-18T00:52:25.117Z,17.20
2017-05-18T00:54:53.923Z,17.10
2017-05-18T00:57:22.748Z,17.10
2017-05-18T00:59:51.604Z,17.10
2017-05-18T01:02:20.453Z,17.10
2017-05-18T01:04:49.272Z,16.90
2017-05-18T01:07:18.104Z,17.00
2017-05-18T01:09:46.951Z,17.00
2017-05-18T01:12:15.774Z,16.90
2017-05-18T01:14:44.668Z,16.80
2017-05-18T01:17:12.714Z,16.80
2017-05-18T01:19:41.568Z,16.70
2017-05-18T01:22:10.385Z,16.50
2017-05-18T01:24:39.224Z,16.40
2017-05-18T01:27:08.049Z,16.40
2017-05-18T01:29:36.865Z,16.40
2017-05-18T01:32:05.703Z,16.30
2017-05-18T01:34:34.523Z,16.20
2017-05-18T01:37:03.357Z,16.00
2017-05-18T01:39:32.183Z,15.80
2017-05-18T01:42:01.014Z,15.90
2017-05-18T01:44:29.939Z,15.90
2017-05-18T01:46:58.815Z,15.90
2017-05-18T01:49:27.640Z,15.80
2017-05-18T01:51:56.481Z,15.50
2017-05-18T01:54:25.323Z,15.20
2017-05-18T01:56:54.132Z,15.20
2017-05-18T01:59:22.979Z,15.40
2017-05-18T02:01:51.827Z,15.40
2017-05-18T02:04:20.671Z,15.00
2017-05-18T02:06:49.523Z,15.10
2017-05-18T02:09:18.349Z,15.00
2017-05-18T02:11:47.180Z,15.10
2017-05-18T02:14:16.016Z,15.10
2017-05-18T02:16:44.867Z,15.00
2017-05-18T02:19:13.701Z,15.00
2017-05-18T02:21:42.543Z,15.00
2017-05-18T02:24:11.389Z,15.00
2017-05-18T02:26:40.215Z,15.00
2017-05-18T02:29:09.066Z,15.00
2017-05-18T02:31:37.889Z,15.00
2017-05-18T02:34:06.726Z,15.10
2017-05-18T02:36:35.551Z,15.20
2017-05-18T02:39:04.402Z,15.10
2017-05-18T02:41:33.244Z,15.20
2017-05-18T02:44:02.068Z,15.20
2017-05-18T02:46:30.906Z,15.10
2017-05-18T02:48:59.744Z,15.10
2017-05-18T02:51:28.610Z,15.00
2017-05-18T02:53:57.455Z,14.90
2017-05-18T02:56:26.301Z,14.80
2017-05-18T02:58:55.146Z,14.60
2017-05-18T03:01:23.987Z,14.40
2017-05-18T03:03:52.839Z,14.40
2017-05-18T03:06:21.683Z,14.40
2017-05-18T03:08:50.548Z,14.50
2017-05-18T03:11:19.369Z,14.10
2017-05-18T03:13:48.192Z,14.00
2017-05-18T03:16:17.070Z,13.80
2017-05-18T03:18:45.907Z,13.50
2017-05-18T03:21:15.484Z,13.80
2017-05-18T03:23:44.312Z,14.10
2017-05-18T03:26:13.168Z,14.20
2017-05-18T03:28:42.014Z,14.30
2017-05-18T03:31:10.828Z,14.40
2017-05-18T03:33:39.674Z,14.40
2017-05-18T03:36:08.604Z,14.50
2017-05-18T03:38:37.455Z,14.50
2017-05-18T03:41:06.299Z,14.50
2017-05-18T03:43:35.166Z,14.50
2017-05-18T03:46:04.002Z,14.50
2017-05-18T03:48:32.847Z,14.50
2017-05-18T03:51:01.678Z,14.50
2017-05-18T03:53:30.515Z,14.50
2017-05-18T03:55:59.363Z,14.50
2017-05-18T03:58:27.419Z,14.50
2017-05-18T04:00:56.286Z,14.60
2017-05-18T04:03:25.138Z,14.60
2017-05-18T04:05:53.961Z,14.60
2017-05-18T04:08:22.816Z,14.40
2017-05-18T04:10:51.662Z,14.50
2017-05-18T04:13:20.607Z,14.30
2017-05-18T04:15:49.433Z,14.00
2017-05-18T04:18:18.284Z,14.10
2017-05-18T04:20:47.109Z,14.30
2017-05-18T04:23:15.950Z,14.40
2017-05-18T04:25:44.800Z,14.40
2017-05-18T04:28:13.621Z,14.60
2017-05-18T04:30:42.463Z,14.80
2017-05-18T04:33:11.540Z,15.00
2017-05-18T04:35:40.590Z,15.20
2017-05-18T04:38:09.821Z,15.30
2017-05-18T04:40:39.032Z,15.50
2017-05-18T04:43:08.112Z,15.60
2017-05-18T04:45:37.288Z,15.80
2017-05-18T04:48:06.136Z,15.90
2017-05-18T04:50:34.982Z,15.90
2017-05-18T04:53:03.871Z,16.00
2017-05-18T04:55:32.711Z,16.10
2017-05-18T04:58:01.582Z,16.00
2017-05-18T05:00:30.414Z,16.10
2017-05-18T05:02:59.263Z,16.20
2017-05-18T05:05:28.084Z,16.30
2017-05-18T05:07:56.911Z,16.40
2017-05-18T05:10:25.760Z,16.50
2017-05-18T05:12:54.668Z,16.50
2017-05-18T05:15:23.512Z,16.70
2017-05-18T05:17:51.577Z,16.70
2017-05-18T05:20:20.408Z,16.70
2017-05-18T05:22:49.263Z,17.00
2017-05-18T05:25:18.091Z,17.00
2017-05-18T05:27:46.954Z,17.40
2017-05-18T05:30:15.787Z,17.60
2017-05-18T05:32:44.605Z,17.70
2017-05-18T05:35:13.443Z,17.70
2017-05-18T05:37:42.270Z,17.80
2017-05-18T05:40:11.112Z,17.80
2017-05-18T05:42:39.948Z,17.90
2017-05-18T05:45:08.801Z,18.00
2017-05-18T05:47:37.620Z,18.00
2017-05-18T05:50:06.470Z,18.10
2017-05-18T05:52:35.300Z,18.10
2017-05-18T05:55:04.125Z,18.20
2017-05-18T05:57:32.965Z,18.30
2017-05-18T06:00:01.780Z,18.40
2017-05-18T06:02:30.599Z,18.50
2017-05-18T06:04:59.441Z,18.60
2017-05-18T06:07:28.288Z,18.40
2017-05-18T06:09:57.137Z,18.60
2017-05-18T06:12:25.974Z,18.70
2017-05-18T06:14:54.812Z,18.20
2017-05-18T06:17:23.645Z,18.70
2017-05-18T06:19:52.463Z,19.30
2017-05-18T06:22:21.304Z,19.70
2017-05-18T06:24:50.139Z,19.60
2017-05-18T06:27:18.988Z,19.10
2017-05-18T06:29:47.823Z,18.90
2017-05-18T06:32:16.765Z,19.50
2017-05-18T06:34:45.599Z,19.60
2017-05-18T06:37:14.446Z,19.90
2017-05-18T06:39:43.286Z,20.10
2017-05-18T06:42:12.108Z,20.30
2017-05-18T06:44:40.937Z,20.10
2017-05-18T06:47:09.747Z,19.90
2017-05-18T06:49:38.608Z,19.90
2017-05-18T06:52:07.454Z,19.50
2017-05-18T06:54:36.294Z,19.90
2017-05-18T06:57:05.129Z,20.10
2017-05-18T06:59:33.950Z,20.60
2017-05-18T07:02:02.781Z,20.00
2017-05-18T07:04:31.661Z,20.70
2017-05-18T07:07:00.472Z,21.00
2017-05-18T07:09:29.293Z,20.50
2017-05-18T07:11:58.115Z,21.10
2017-05-18T07:14:26.964Z,21.10
2017-05-18T07:16:55.787Z,20.50
2017-05-18T07:19:24.631Z,21.20
2017-05-18T07:21:53.462Z,22.00
2017-05-18T07:24:22.303Z,22.20
2017-05-18T07:26:51.147Z,22.00
2017-05-18T07:29:19.983Z,22.00
2017-05-18T07:31:48.835Z,21.80
2017-05-18T07:34:17.675Z,22.50
2017-05-18T07:36:46.526Z,22.20
2017-05-18T07:39:15.359Z,22.20
2017-05-18T07:41:44.235Z,21.70
2017-05-18T07:44:13.047Z,22.10
2017-05-18T07:46:41.916Z,22.90
2017-05-18T07:49:10.745Z,23.10
2017-05-18T07:51:39.566Z,23.00
2017-05-18T07:54:08.393Z,22.40
2017-05-18T07:56:37.204Z,23.00
2017-05-18T08:03:14.731Z,22.90
2017-05-18T08:05:43.600Z,22.90
2017-05-18T08:08:12.397Z,22.30
2017-05-18T08:10:41.224Z,22.80
2017-05-18T08:13:10.044Z,22.90
2017-05-18T08:15:38.899Z,22.90
2017-05-18T08:18:07.736Z,23.20
2017-05-18T08:20:36.551Z,23.40
2017-05-18T08:23:05.507Z,23.10
2017-05-18T08:25:34.320Z,23.80
2017-05-18T08:28:03.287Z,24.20
2017-05-18T08:30:32.100Z,23.70
2017-05-18T08:33:00.932Z,23.90
2017-05-18T08:35:29.753Z,24.00
2017-05-18T08:37:58.577Z,24.60
2017-05-18T08:40:27.409Z,24.60
2017-05-18T08:42:56.232Z,24.80
2017-05-18T08:45:25.065Z,25.00
2017-05-18T08:47:53.883Z,24.50
2017-05-18T08:50:22.736Z,24.10
2017-05-18T08:52:51.547Z,25.70
2017-05-18T08:55:20.365Z,26.10
2017-05-18T08:57:49.200Z,27.20
2017-05-18T09:00:18.017Z,26.20
2017-05-18T09:02:46.844Z,25.30
2017-05-18T09:05:15.661Z,25.90
2017-05-18T09:07:44.495Z,27.20
2017-05-18T09:10:13.321Z,26.20
2017-05-18T09:12:42.172Z,26.00
2017-05-18T09:15:11.002Z,26.20
2017-05-18T09:17:39.824Z,28.30
2017-05-18T09:20:08.651Z,29.60
2017-05-18T09:22:37.464Z,30.10
2017-05-18T09:25:06.295Z,30.50
2017-05-18T09:27:35.127Z,30.60
2017-05-18T09:30:04.047Z,29.40
2017-05-18T09:32:32.868Z,30.40
2017-05-18T09:35:01.697Z,30.50
2017-05-18T09:37:30.514Z,31.20
2017-05-18T09:39:59.340Z,31.10
2017-05-18T09:42:28.212Z,26.90
2017-05-18T09:44:57.019Z,29.00
2017-05-18T09:47:25.880Z,30.60
2017-05-18T09:49:54.701Z,31.30
2017-05-18T09:52:23.527Z,31.30
2017-05-18T09:54:52.353Z,31.00
2017-05-18T09:57:21.178Z,30.50
2017-05-18T09:59:50.006Z,31.70
2017-05-18T10:02:18.818Z,32.30
2017-05-18T10:04:47.664Z,32.50
2017-05-18T10:07:16.488Z,32.60
2017-05-18T10:09:45.312Z,32.50
2017-05-18T10:12:14.137Z,32.60
2017-05-18T10:14:42.954Z,32.90
2017-05-18T10:17:11.778Z,32.80
2017-05-18T10:19:40.589Z,33.00
2017-05-18T10:22:09.419Z,33.10
2017-05-18T10:24:38.245Z,32.20
2017-05-18T10:27:07.060Z,32.80
2017-05-18T10:29:36.288Z,29.30
2017-05-18T10:32:05.113Z,28.90
2017-05-18T10:34:33.953Z,28.70
2017-05-18T10:37:02.763Z,29.50
2017-05-18T10:39:31.604Z,31.00
2017-05-18T10:42:00.428Z,31.30
2017-05-18T10:44:29.245Z,31.70
2017-05-18T10:46:58.067Z,31.80
2017-05-18T10:49:26.894Z,32.70
2017-05-18T10:51:55.717Z,32.40
2017-05-18T10:54:24.538Z,33.00
2017-05-18T10:56:53.364Z,29.90
2017-05-18T10:59:22.178Z,31.80
2017-05-18T11:01:50.999Z,32.70
2017-05-18T11:04:19.828Z,33.30
2017-05-18T11:06:48.648Z,32.90
2017-05-18T11:09:17.485Z,32.80
2017-05-18T11:11:46.306Z,33.20
2017-05-18T11:14:15.139Z,33.70
2017-05-18T11:16:43.960Z,34.00
2017-05-18T11:19:12.786Z,34.20
2017-05-18T11:21:41.608Z,33.70
2017-05-18T11:24:10.427Z,32.90
2017-05-18T11:26:39.267Z,32.20
2017-05-18T11:29:08.097Z,32.10
2017-05-18T11:31:36.939Z,32.20
2017-05-18T11:34:05.769Z,31.90
2017-05-18T11:36:34.589Z,32.30
2017-05-18T11:39:03.424Z,31.20
2017-05-18T11:41:32.240Z,31.00
2017-05-18T11:44:01.076Z,31.30
2017-05-18T11:46:29.891Z,30.30
2017-05-18T11:48:58.727Z,29.90
2017-05-18T11:51:27.539Z,30.90
2017-05-18T11:53:56.363Z,29.50
2017-05-18T11:56:25.194Z,29.90
2017-05-18T11:58:54.010Z,30.30
2017-05-18T12:01:22.840Z,29.30
2017-05-18T12:03:51.661Z,28.90
2017-05-18T12:06:20.491Z,28.70
2017-05-18T12:08:49.320Z,29.20
2017-05-18T12:11:18.147Z,29.30
2017-05-18T12:13:46.969Z,29.30
2017-05-18T12:16:15.804Z,29.00
2017-05-18T12:18:44.638Z,29.40
2017-05-18T12:21:13.452Z,29.90
2017-05-18T12:23:42.305Z,30.20
2017-05-18T12:26:11.127Z,28.90
2017-05-18T12:28:39.959Z,28.90
2017-05-18T12:31:08.799Z,28.60
2017-05-18T12:33:37.622Z,29.40
2017-05-18T12:36:06.446Z,27.90
2017-05-18T12:38:35.266Z,28.50
2017-05-18T12:41:04.101Z,28.00
2017-05-18T12:43:32.926Z,27.80
2017-05-18T12:46:01.757Z,27.90
2017-05-18T12:48:30.577Z,28.60
2017-05-18T12:50:59.397Z,29.80
2017-05-18T12:53:28.221Z,29.00
2017-05-18T12:55:57.039Z,28.80
2017-05-18T12:58:25.872Z,29.40
2017-05-18T13:00:54.692Z,28.60
2017-05-18T13:03:23.527Z,29.80
2017-05-18T13:05:52.360Z,30.60
2017-05-18T13:08:21.178Z,31.60
2017-05-18T13:10:50.013Z,30.80
2017-05-18T13:13:19.699Z,30.80
2017-05-18T13:15:48.524Z,29.80
2017-05-18T13:18:17.350Z,29.70
2017-05-18T13:20:46.180Z,29.30
2017-05-18T13:23:14.997Z,29.60
2017-05-18T13:25:43.839Z,28.80
2017-05-18T13:28:12.658Z,28.80
2017-05-18T13:30:41.477Z,28.40
2017-05-18T13:33:10.300Z,29.40
2017-05-18T13:35:39.119Z,29.10
2017-05-18T13:38:07.953Z,29.10
2017-05-18T13:40:36.767Z,30.10
2017-05-18T13:43:05.656Z,29.30
2017-05-18T13:45:34.472Z,29.60
2017-05-18T13:48:03.299Z,29.20
2017-05-18T13:50:32.123Z,28.70
2017-05-18T13:53:00.963Z,28.60
2017-05-18T13:55:29.795Z,29.40
2017-05-18T13:57:58.616Z,29.60
2017-05-18T14:00:27.470Z,28.90
2017-05-18T14:02:56.289Z,28.20
2017-05-18T14:05:25.112Z,28.90
2017-05-18T14:07:53.943Z,28.90
2017-05-18T14:10:22.758Z,28.90
2017-05-18T14:12:51.583Z,29.20
2017-05-18T14:15:20.400Z,28.80
2017-05-18T14:17:49.245Z,28.20
2017-05-18T14:20:18.063Z,27.80
2017-05-18T14:22:46.884Z,27.80
2017-05-18T14:25:15.712Z,27.90
2017-05-18T14:27:44.536Z,28.20
2017-05-18T14:30:13.358Z,28.50
2017-05-18T14:32:42.204Z,28.60
2017-05-18T14:35:11.051Z,28.40
2017-05-18T14:37:39.871Z,28.50
2017-05-18T14:40:09.361Z,28.40
2017-05-18T14:42:38.188Z,28.30
2017-05-18T14:45:07.876Z,28.20
2017-05-18T14:47:36.700Z,28.30
2017-05-18T14:50:05.531Z,28.40
2017-05-18T14:52:34.349Z,28.50
2017-05-18T14:55:03.180Z,28.40
2017-05-18T14:57:32.006Z,28.40
2017-05-18T15:00:00.831Z,28.00
2017-05-18T15:02:29.665Z,28.00
2017-05-18T15:04:58.678Z,27.80
2017-05-18T15:07:27.633Z,27.50
2017-05-18T15:09:56.453Z,27.50
2017-05-18T15:12:25.284Z,27.60
2017-05-18T15:14:54.099Z,27.50
2017-05-18T15:17:22.920Z,27.00
2017-05-18T15:19:51.752Z,26.90
2017-05-18T15:22:20.580Z,26.20
2017-05-18T15:24:49.427Z,26.30
2017-05-18T15:27:18.273Z,26.40
2017-05-18T15:29:47.089Z,26.90
2017-05-18T15:32:15.952Z,27.10
2017-05-18T15:34:44.780Z,27.20
2017-05-18T15:37:13.607Z,27.20
2017-05-18T15:39:42.435Z,27.30
2017-05-18T15:42:11.265Z,27.20
2017-05-18T15:44:40.075Z,26.40
2017-05-18T15:47:08.909Z,26.90
2017-05-18T15:49:37.739Z,26.20
2017-05-18T15:52:06.561Z,26.50
2017-05-18T15:54:35.403Z,26.20
2017-05-18T16:00:00.677Z,26.60
2017-05-18T16:02:29.499Z,26.70
2017-05-18T16:04:58.336Z,26.70
2017-05-18T16:07:27.200Z,26.50
2017-05-18T16:09:56.017Z,26.60
2017-05-18T16:12:24.835Z,26.70
2017-05-18T16:14:53.660Z,26.50
2017-05-18T16:17:22.501Z,26.50
2017-05-18T16:19:51.319Z,26.60
2017-05-18T16:22:21.146Z,26.30
2017-05-18T16:24:49.973Z,26.30
2017-05-18T16:27:18.837Z,26.40
2017-05-18T16:29:47.656Z,26.50
2017-05-18T16:32:16.485Z,26.20
2017-05-18T16:34:45.366Z,26.00
2017-05-18T16:37:14.222Z,26.20
2017-05-18T16:39:43.036Z,26.00
2017-05-18T16:42:11.862Z,26.20
2017-05-18T16:44:40.694Z,25.90
2017-05-18T16:47:09.530Z,26.00
2017-05-18T16:49:38.356Z,26.00
2017-05-18T16:52:07.207Z,26.20
2017-05-18T16:54:36.081Z,26.10
2017-05-18T16:57:04.904Z,26.00
2017-05-18T16:59:33.735Z,25.80
2017-05-18T17:02:02.556Z,25.60
2017-05-18T17:04:31.388Z,25.60
2017-05-18T17:07:00.199Z,25.50
2017-05-18T17:09:29.016Z,25.40
2017-05-18T17:11:57.845Z,25.30
2017-05-18T17:14:26.663Z,25.20
2017-05-18T17:16:55.500Z,24.90
2017-05-18T17:19:24.347Z,24.60
2017-05-18T17:21:53.191Z,24.50
2017-05-18T17:24:22.031Z,24.60
2017-05-18T17:26:50.847Z,24.40
2017-05-18T17:29:19.699Z,24.60
2017-05-18T17:31:48.531Z,24.40
2017-05-18T17:34:17.352Z,24.30
2017-05-18T17:36:46.183Z,24.30
2017-05-18T17:39:15.038Z,23.80
2017-05-18T17:41:43.858Z,23.80
2017-05-18T17:44:12.700Z,23.80
2017-05-18T17:46:41.535Z,23.80
2017-05-18T17:49:10.356Z,23.90
2017-05-18T17:51:39.199Z,23.60
2017-05-18T17:54:08.018Z,23.60
2017-05-18T17:56:36.843Z,24.00
2017-05-18T17:59:05.674Z,24.00
2017-05-18T18:01:34.490Z,23.90
2017-05-18T18:04:03.310Z,23.70
2017-05-18T18:06:32.129Z,23.50
2017-05-18T18:09:00.956Z,23.50
2017-05-18T18:11:29.766Z,23.60
2017-05-18T18:14:06.443Z,23.50
2017-05-18T18:16:35.255Z,23.60
2017-05-18T18:19:04.080Z,23.60
2017-05-18T18:21:32.905Z,23.40
2017-05-18T18:24:01.726Z,23.70
2017-05-18T18:26:30.543Z,23.40
2017-05-18T18:28:59.360Z,23.10
2017-05-18T18:31:28.223Z,22.90
2017-05-18T18:33:57.040Z,22.90
2017-05-18T18:36:25.865Z,23.00
2017-05-18T18:38:54.689Z,23.10
2017-05-18T18:41:23.521Z,23.20
2017-05-18T18:43:52.356Z,23.10
2017-05-18T18:46:21.184Z,23.30
2017-05-18T18:48:50.054Z,23.00
2017-05-18T18:51:18.874Z,22.80
2017-05-18T18:53:47.689Z,23.00
2017-05-18T18:56:16.511Z,23.00
2017-05-18T18:58:45.324Z,22.90
2017-05-18T19:01:14.177Z,23.00
2017-05-18T19:03:42.992Z,22.80
2017-05-18T19:06:11.823Z,22.50
2017-05-18T19:08:40.668Z,22.60
2017-05-18T19:11:09.503Z,22.60
2017-05-18T19:13:38.346Z,22.30
2017-05-18T19:16:07.159Z,22.40
2017-05-18T19:18:35.991Z,22.30
2017-05-18T19:21:04.803Z,22.30
2017-05-18T19:23:33.651Z,22.00
2017-05-18T19:26:02.502Z,21.70
2017-05-18T19:28:31.314Z,21.80
2017-05-18T19:31:00.159Z,22.00
2017-05-18T19:33:28.972Z,22.10
2017-05-18T19:35:57.814Z,22.10
2017-05-18T19:38:26.635Z,21.70
2017-05-18T19:40:55.483Z,21.70
2017-05-18T19:43:24.304Z,21.80
2017-05-18T19:45:53.123Z,21.40
2017-05-18T19:48:21.954Z,21.40
2017-05-18T19:50:50.768Z,21.40
2017-05-18T19:53:19.622Z,21.40
2017-05-18T19:55:48.433Z,21.60
2017-05-18T19:58:17.301Z,21.70
2017-05-18T20:00:46.116Z,21.80
2017-05-18T20:03:14.939Z,21.70
2017-05-18T20:05:43.792Z,21.50
2017-05-18T20:08:12.623Z,21.30
2017-05-18T20:10:41.467Z,21.20
2017-05-18T20:13:10.281Z,21.00
2017-05-18T20:15:39.100Z,21.00
2017-05-18T20:18:07.927Z,21.10
2017-05-18T20:20:36.778Z,21.20
2017-05-18T20:23:05.614Z,21.20
2017-05-18T20:25:34.438Z,21.20
2017-05-18T20:28:03.284Z,20.80
2017-05-18T20:30:32.197Z,20.90
2017-05-18T20:33:01.020Z,20.80
2017-05-18T20:35:29.850Z,20.80
2017-05-18T20:37:58.672Z,20.80
2017-05-18T20:40:27.493Z,21.00
2017-05-18T20:42:56.322Z,21.00
2017-05-18T20:45:25.135Z,20.90
2017-05-18T20:47:53.984Z,20.90
2017-05-18T20:50:22.831Z,20.80
2017-05-18T20:52:51.675Z,20.70
2017-05-18T20:55:20.500Z,20.90
2017-05-18T20:57:49.327Z,21.00
2017-05-18T21:00:18.164Z,20.90
2017-05-18T21:02:46.985Z,20.40
2017-05-18T21:05:15.854Z,20.50
2017-05-18T21:07:44.711Z,20.30
2017-05-18T21:10:13.531Z,19.90
2017-05-18T21:12:42.351Z,19.70
2017-05-18T21:15:11.198Z,20.00
2017-05-18T21:17:40.034Z,20.00
2017-05-18T21:20:08.874Z,20.20
2017-05-18T21:22:37.693Z,20.50
2017-05-18T21:25:06.509Z,20.70
2017-05-18T21:27:35.342Z,20.70
2017-05-18T21:30:04.165Z,20.40
2017-05-18T21:32:33.006Z,20.10
2017-05-18T21:35:01.836Z,19.90
2017-05-18T21:37:30.677Z,20.20
2017-05-18T21:39:59.498Z,20.40
2017-05-18T21:42:28.340Z,20.50
2017-05-18T21:44:57.186Z,20.50
2017-05-18T21:47:26.020Z,20.60
2017-05-18T21:49:54.867Z,20.60
2017-05-18T21:52:23.701Z,20.80
2017-05-18T21:54:52.526Z,20.80
2017-05-18T21:57:21.342Z,20.80
2017-05-18T21:59:50.170Z,20.90
2017-05-18T22:02:18.995Z,20.90
2017-05-18T22:04:47.811Z,20.90
2017-05-18T22:07:16.694Z,20.80
2017-05-18T22:09:45.463Z,20.80
2017-05-18T22:12:14.296Z,20.80
2017-05-18T22:14:43.122Z,20.60
2017-05-18T22:17:11.978Z,20.60
2017-05-18T22:19:40.792Z,20.60
2017-05-18T22:22:09.626Z,20.60
2017-05-18T22:24:38.546Z,20.50
2017-05-18T22:27:07.361Z,20.50
2017-05-18T22:29:36.171Z,20.40
2017-05-18T22:32:05.018Z,20.30
2017-05-18T22:34:33.833Z,20.30
2017-05-18T22:37:02.653Z,20.30
2017-05-18T22:39:31.479Z,20.20
2017-05-18T22:42:00.330Z,20.20
2017-05-18T22:44:29.226Z,20.20
2017-05-18T22:46:58.626Z,20.10
2017-05-18T22:49:27.474Z,20.10
2017-05-18T22:51:56.287Z,20.10
2017-05-18T22:54:25.116Z,20.10
2017-05-18T22:56:53.932Z,20.00
2017-05-18T22:59:22.799Z,19.90
2017-05-18T23:01:51.610Z,19.80
2017-05-18T23:04:20.562Z,19.90
2017-05-18T23:06:49.402Z,19.90
2017-05-18T23:09:18.207Z,19.80
2017-05-18T23:11:47.953Z,19.70
2017-05-18T23:14:16.773Z,19.70
2017-05-18T23:16:45.603Z,19.60
2017-05-18T23:19:14.547Z,19.60
2017-05-18T23:21:43.452Z,19.50
2017-05-18T23:24:13.367Z,19.50
2017-05-18T23:26:42.207Z,19.40
2017-05-18T23:29:11.034Z,19.30
2017-05-18T23:31:39.847Z,19.30
2017-05-18T23:34:08.699Z,19.30
2017-05-18T23:36:37.514Z,19.20
2017-05-18T23:39:06.347Z,19.20
2017-05-18T23:41:35.182Z,19.30
2017-05-18T23:44:03.991Z,19.20
2017-05-18T23:46:32.835Z,19.10
2017-05-18T23:49:01.673Z,19.10
2017-05-18T23:51:30.507Z,19.00
2017-05-18T23:53:59.328Z,18.90
2017-05-18T23:56:28.145Z,18.90
2017-05-18T23:58:56.985Z,18.90
